Linville, NC

10:34 PM EDT on March 26, 2015 (GMT -0400)
Sugarvista | | Change Station
CLOSE
Current Station
Personal Weather Station
Location: Newland, NC
Elevation: 4570 ft
Nearby Weather Stations

Elev 4570 ft 36.10 °N, 81.89 °W | Updated 29 seconds ago

Overcast
Overcast
49.9 °F
Feels Like 50 °F
N
0.0
Wind Variable Wind from NW
Gusts 0.0 mph

Today
High -- | Low -- °F
--% Chance of Precip.
Yesterday
High -- | Low -- °F
Precip. -- in
7:22 AM 7:44 PM
Waxing Crescent, 48% visible
Pressure 29.76 in
Visibility 7.0 miles
Clouds Scattered Clouds 1800 ft
Mostly Cloudy 2600 ft
Overcast 4500 ft
Windchill 50 °F
Dew Point 49 °F
Humidity 96%
Rainfall 0.11 in
Snow Depth Not available.
UV 0 out of 12
Pollen 10.10 out of 12
Air Quality Not available.
Flu Activity Not available.
METAR KTNB 270215Z AUTO 27007KT 7SM RA SCT018 BKN026 OVC045 13/12 A2976 RMK AO2 P0001 T01280119

More Conditions Fewer Conditions

Pressure 29.76 in
Visibility 7.0 miles
Clouds Scattered Clouds 1800 ft
Mostly Cloudy 2600 ft
Overcast 4500 ft
Windchill 50 °F
Dew Point 49 °F
Humidity 96%
Rainfall 0.11 in
Snow Depth Not available.
UV 0 out of 12
Pollen 10.10 out of 12
Air Quality Not available.
Flu Activity Not available.
METAR KTNB 270215Z AUTO 27007KT 7SM RA SCT018 BKN026 OVC045 13/12 A2976 RMK AO2 P0001 T01280119

More Conditions Fewer Conditions

10-Day Weather Forecast

Almanac

Astronomy

Mar. 26, 2015 Rise Set
Actual Time
Civil Twilight
Nautical Twilight
Astronomical Twilight
Moon
Length of Visible Light
Length of Day
Tomorrow will be .
, % of the Moon is Illuminated

Today's Extremes

State Highs State Lows

Community

WunderPhotos

Upload Photos

1,808,689 photos uploaded!

WunderBlogs® & News

Nearby

Air Quality

  Air Quality AQ Index Pollutant
Not available.

Snow Depth

Station Depth Elevation

Earthquake Activity

City Distance Mag. Time & Date
Minimum magnitude displayed is 2.5.

Coastal Water Temperatures

Place Temperature

Stations

Nearby Weather Stations

Station Location Temp. Windchill Dew Point Humidity Wind Precip. Elev Updated Type